Flight Track Log - Related Links

Times and Time Zones

All times are in EDT time to prevent confusion due to time zone crossing. See the N507PD flight status page for this flight to view local times or setup timezone preferences in your user account.

Time Position Orientation Groundspeed Altitude Reporting Facility
EDT Latitude Longitude Course Direction KTS MPH feet Rate Location/Type
Wed 02:01:56 PM 38.6481 -90.6222 215° Southwest 187 215 1,700  Level FAA TRACON SMA TRACON (SMA)
Wed 02:02:17 PM 38.6333 -90.6353 215° Southwest 216 249 2,500 3,150 Climbing FAA TRACON SMA TRACON (SMA)
Wed 02:02:36 PM 38.6103 -90.6292 168° South 238 274 3,800 3,789 Climbing FAA TRACON SMA TRACON (SMA)
Wed 02:02:55 PM 38.5958 -90.6078 131° Southeast 253 291 4,900 3,692 Climbing FAA TRACON SMA TRACON (SMA)
Wed 02:03:15 PM 38.5911 -90.5797 102° East 266 306 6,200 4,143 Climbing FAA TRACON SMA TRACON (SMA)
Wed 02:03:37 PM 38.5936 -90.5439 85° East 268 308 7,800 4,244 Climbing FAA TRACON SMA TRACON (SMA)
Wed 02:03:56 PM 38.5981 -90.5144 79° East 270 311 9,100 3,947 Climbing FAA TRACON SMA TRACON (SMA)
Wed 02:04:15 PM 38.6039 -90.4856 76° East 272 313 10,300 4,200 Climbing FAA TRACON SMA TRACON (SMA)
Wed 02:04:36 PM 38.6108 -90.4481 77° East 281 323 11,900 4,200 Climbing FAA TRACON SMA TRACON (SMA)
Wed 02:04:55 PM 38.6158 -90.4164 79° East 292 336 13,100 3,077 Climbing FAA TRACON SMA TRACON (SMA)
Wed 02:05:15 PM 38.6203 -90.3817 81° East 314 361 13,900 2,488 Climbing FAA TRACON SMA TRACON (SMA)
Wed 02:05:36 PM 38.6272 -90.3339 79° East 350 403 14,800 1,610 Climbing FAA TRACON SMA TRACON (SMA)
Wed 02:05:56 PM 38.6347 -90.2914 77° East 387 445 15,000 300 Climbing FAA TRACON SMA TRACON (SMA)
Wed 02:06:16 PM 38.6464 -90.2358 75° East 419 482 15,000  Level FAA TRACON SMA TRACON (SMA)
Wed 02:06:36 PM 38.6547 -90.1922 76° East 416 479 15,000  Level FAA TRACON SMA TRACON (SMA)
Wed 02:06:56 PM 38.6633 -90.1497 75° East 407 468 15,000  Level FAA TRACON SMA TRACON (SMA)
Wed 02:07:16 PM 38.6747 -90.0969 75° East 399 459 15,000 150 Level FAA TRACON SMA TRACON (SMA)
Wed 02:07:36 PM 38.6828 -90.0544 76° East 397 457 15,100 1,050 Climbing FAA TRACON SMA TRACON (SMA)
Wed 02:07:56 PM 38.6900 -90.0117 78° East 401 461 15,700 2,100 Climbing FAA TRACON SMA TRACON (SMA)
Wed 02:08:16 PM 38.7000 -89.9569 77° East 408 470 16,500 2,100 Climbing FAA TRACON SMA TRACON (SMA)
Wed 02:08:36 PM 38.7081 -89.9119 77° East 418 481 17,100 1,950 Climbing FAA TRACON SMA TRACON (SMA)
Wed 02:08:56 PM 38.7169 -89.8669 76° East 423 487 17,800 2,488 Climbing FAA TRACON SMA TRACON (SMA)
Wed 02:09:17 PM 38.7264 -89.8097 78° East 428 493 18,800 2,780 Climbing FAA TRACON SMA TRACON (SMA)
Wed 02:09:37 PM 38.7344 -89.7633 77° East 432 497 19,700 2,769 Climbing FAA TRACON SMA TRACON (SMA)
Wed 02:09:56 PM 38.7428 -89.7169 77° East 435 501 20,600 2,850 Climbing FAA TRACON SMA TRACON (SMA)
Wed 02:10:17 PM 38.7542 -89.6592 76° East 435 501 21,600 2,780 Climbing FAA TRACON SMA TRACON (SMA)
Wed 02:10:37 PM 38.7617 -89.6119 78° East 438 504 22,500 3,000 Climbing FAA TRACON SMA TRACON (SMA)
Wed 02:10:57 PM 38.7736 -89.5533 75° East 442 509 23,600 2,923 Climbing FAA TRACON SMA TRACON (SMA)
Wed 02:11:16 PM 38.7825 -89.5058 76° East 444 511 24,400 2,615 Climbing FAA TRACON SMA TRACON (SMA)
Wed 02:11:36 PM 38.7900 -89.4578 79° East 447 514 25,300 2,700 Climbing FAA TRACON SMA TRACON (SMA)
Wed 02:11:56 PM 38.7950 -89.4094 82° East 447 514 26,200 2,780 Climbing FAA TRACON SMA TRACON (SMA)
Wed 02:12:17 PM 38.8017 -89.3492 82° East 446 513 27,200 2,780 Climbing FAA TRACON SMA TRACON (SMA)
Wed 02:12:37 PM 38.8097 -89.3011 78° East 447 514 28,100 2,615 Climbing FAA TRACON SMA TRACON (SMA)
Wed 02:12:56 PM 38.8164 -89.2536 80° East 444 511 28,900 1,350 Climbing FAA TRACON SMA TRACON (SMA)
Wed 02:13:17 PM 38.8247 -89.1917 80° East 454 522 29,000 146 Climbing FAA TRACON SMA TRACON (SMA)
Wed 02:13:37 PM 38.8314 -89.1400 81° East 474 545 29,000  Level FAA TRACON SMA TRACON (SMA)
Wed 02:13:57 PM 38.8425 -89.0731 78° East 498 573 29,000  Level FAA TRACON SMA TRACON (SMA)
Wed 02:14:16 PM 38.8425 -89.0731 90° East 498 573 29,000  Level FAA TRACON SMA TRACON (SMA)
Wed 02:14:44 PM 38.8556 -89.0028 77° East 513 590 29,000 1,696 Level Kansas City Center
Wed 02:15:48 PM 38.8261 -88.8233 102° East 497 572 31,600 1,920 Climbing Kansas City Center
Wed 02:16:49 PM 38.7953 -88.6650 104° East 465 535 33,000 694 Climbing Kansas City Center
Wed 02:17:49 PM 38.7767 -88.4947 98° East 475 547 33,000  Level Kansas City Center
Wed 02:18:54 PM 38.7697 -88.3058 93° East 503 579 33,000  Level Kansas City Center
Wed 02:19:54 PM 38.7600 -88.1208 94° East 514 592 33,000  Level Kansas City Center
Wed 02:20:58 PM 38.7478 -87.9025 94° East 513 590 33,000  Level Kansas City Center
Wed 02:21:59 PM 38.7375 -87.7178 94° East 515 593 33,000 -242 Level Kansas City Center
Wed 02:23:02 PM 38.7258 -87.5356 95° East 511 588 32,500 -785 Descending Kansas City Center
Wed 02:24:09 PM 38.7125 -87.3542 95° East 514 592 31,300 -1,349 Descending Indianapolis Center
Wed 02:25:11 PM 38.6975 -87.1356 95° East 509 586 29,600 -1,610 Descending Indianapolis Center
Wed 02:26:12 PM 38.6861 -86.9522 94° East 508 585 28,000 -1,512 Descending Indianapolis Center
Wed 02:27:14 PM 38.6731 -86.7669 95° East 514 592 26,500 -1,452 Descending Indianapolis Center
Wed 02:28:16 PM 38.6589 -86.5853 96° East 508 585 25,000 -1,500 Descending Indianapolis Center
Wed 02:29:18 PM 38.6478 -86.4114 95° East 491 565 23,400 -1,268 Descending Indianapolis Center
Wed 02:30:19 PM 38.6356 -86.2494 95° East 461 531 22,400 -1,024 Descending Indianapolis Center
Wed 02:31:21 PM 38.6228 -86.0933 96° East 446 513 21,300 -1,161 Descending Indianapolis Center
Wed 02:32:23 PM 38.6122 -85.9367 95° East 440 506 20,000 -1,355 Descending Indianapolis Center
Wed 02:33:25 PM 38.5997 -85.7725 96° East 454 522 18,500 -1,854 Descending Indianapolis Center
Wed 02:34:26 PM 38.6039 -85.6114 88° East 464 534 16,200 -2,390 Descending Indianapolis Center
Wed 02:35:28 PM 38.6667 -85.4689 61° Northeast 434 499 13,600 -2,032 Descending Indianapolis Center
Wed 02:36:30 PM 38.7228 -85.3489 59° Northeast 395 455 12,000 -774 Descending Indianapolis Center
Wed 02:37:32 PM 38.8142 -85.2528 39° Northeast 368 423 12,000 -145 Level Indianapolis Center
Wed 02:38:34 PM 38.8969 -85.1619 40° Northeast 385 443 11,700 -823 Descending Indianapolis Center
Wed 02:39:36 PM 38.9767 -85.0764 40° Northeast 376 433 10,300 -1,548 Descending Indianapolis Center
Wed 02:40:38 PM 39.0550 -84.9903 40° Northeast 368 423 8,500 -1,548 Descending Indianapolis Center
Wed 02:41:40 PM 39.1194 -84.9164 42° Northeast 319 367 7,100 -1,009 Descending Indianapolis Center
Wed 02:42:25 PM 39.1667 -84.8500 47° Northeast 294 338 6,700 -848 Descending Cincinnati TRACON
Wed 02:43:19 PM 39.2167 -84.7833 46° Northeast 304 350 5,700 -1,053 Descending Cincinnati TRACON
Wed 02:44:19 PM 39.2667 -84.7000 52° Northeast 281 323 4,700 -1,053 Descending Cincinnati TRACON
Wed 02:45:13 PM 39.2833 -84.6000 78° East 282 325 3,700 -409 Descending Cincinnati TRACON
Wed 02:45:47 PM 39.2836 -84.5694 89° East 301 346 4,100 -333 Climbing Indianapolis Center
Wed 02:47:19 PM 39.2833 -84.4167 90° East 242 278 3,000 -418 Descending Cincinnati TRACON
Wed 02:48:25 PM 39.2500 -84.3333 117° Southeast 239 275 3,000  Level Cincinnati TRACON
Wed 02:48:40 PM 39.2417 -84.3153 121° Southeast 233 268 3,000  Level Indianapolis Center
Wed 02:49:42 PM 39.2847 -84.3036 12° North 190 219 3,000 9,677 Level Indianapolis Center
Wed 02:50:44 PM 39.3161 -84.3539 309° West 187 215 23,000 -304 Climbing Indianapolis Center
Wed 02:52:20 PM 39.3333 -84.4167 290° West 120 138 2,200 -13,000 Descending Cincinnati TRACON

Login

Don't have an account? Register now (free) for customized features, flight alerts, and more!